Terminal Aerodrome Forecast
Issued by NWS Denver/Boulder, CO

Home | Current Version | Previous Version | Text Only | Print | Product List | Glossary On
Versions: 1 2 3 4 5 6 7 8 9 10 11 12 13 14 15 16 17 18 19 20 21 22 23 24 25 26 27 28 29 30 31 32 33 34 35 36 37 38 39 40 41 42 43 44
000
FTUS45 KBOU 240207 AAB
TAFDEN
TAF AMD
KDEN 240207Z 2402/2506 23010KT P6SM FEW140 BKN220
     FM240300 31010KT P6SM FEW140 BKN220
     FM240600 21007KT P6SM BKN220
     FM240900 36011KT P6SM BKN200
     FM241100 08006KT P6SM FEW140 BKN200
     FM241300 VRB06KT P6SM FEW090 BKN200
     FM241600 15010KT P6SM SCT090 BKN200
     FM250300 36011KT P6SM SCT080 BKN140=

USA.gov is the U.S. government's official web portal to all federal, state and local government web resources and services.